Time;durP1;ratioP1;P1;durP2;ratioP2;P2;SDS_P1;SDS_P2;PMS_P1;PMS_P2;Temp;Humidity;BMP_temperature;BMP_pressure;BME280_temperature;BME280_humidity;BME280_pressure;Samples;Min_cycle;Max_cycle;Signal;HPM_P1;HPM_P2
2023/05/13 00:01:58;;;;;;;17.45;16.05;;;14.40;99.90;;;;;;5060850;28;20435;-73
2023/05/13 00:04:25;;;;;;;16.25;15.05;;;14.40;99.90;;;;;;5069753;28;20920;-73
2023/05/13 00:06:52;;;;;;;16.80;15.50;;;14.40;99.90;;;;;;5065554;28;20505;-71
2023/05/13 00:09:20;;;;;;;16.63;15.43;;;14.30;99.90;;;;;;5066750;28;20430;-71
2023/05/13 00:11:47;;;;;;;16.52;15.23;;;14.30;99.90;;;;;;5062689;28;20439;-71
2023/05/13 00:14:13;;;;;;;15.37;14.17;;;14.30;99.90;;;;;;5066679;28;20809;-71
2023/05/13 00:16:40;;;;;;;15.50;14.30;;;14.20;99.90;;;;;;5062292;28;20482;-70
2023/05/13 00:19:07;;;;;;;16.73;15.43;;;14.20;99.90;;;;;;5064603;28;20415;-70
2023/05/13 00:21:33;;;;;;;15.88;14.57;;;14.20;99.90;;;;;;5060641;28;20419;-70
2023/05/13 00:24:00;;;;;;;15.23;14.13;;;14.10;99.90;;;;;;5066734;28;20735;-71
2023/05/13 00:26:28;;;;;;;14.65;13.50;;;14.10;99.90;;;;;;5060057;28;20502;-72
2023/05/13 00:28:55;;;;;;;14.50;13.30;;;14.00;99.90;;;;;;5063244;28;20540;-71
2023/05/13 00:31:22;;;;;;;14.50;13.30;;;14.00;99.90;;;;;;5054931;28;20423;-71
2023/05/13 00:33:48;;;;;;;14.25;13.25;;;14.00;99.90;;;;;;5063981;28;20463;-71
2023/05/13 00:36:15;;;;;;;16.17;14.82;;;13.90;99.90;;;;;;5066617;28;20431;-71
2023/05/13 00:38:42;;;;;;;16.70;15.20;;;13.80;99.90;;;;;;5069711;28;20403;-70
2023/05/13 00:41:09;;;;;;;17.20;15.93;;;13.90;99.90;;;;;;5060368;28;20490;-71
2023/05/13 00:43:37;;;;;;;16.92;15.65;;;13.80;99.90;;;;;;5061557;28;20425;-71
2023/05/13 00:46:05;;;;;;;18.48;17.08;;;13.70;99.90;;;;;;5053092;28;20777;-71
2023/05/13 00:48:33;;;;;;;19.50;18.00;;;13.70;99.90;;;;;;5067633;28;20576;-71
2023/05/13 00:50:59;;;;;;;18.02;16.60;;;13.70;99.90;;;;;;5065266;28;20854;-71
2023/05/13 00:53:26;;;;;;;18.47;17.07;;;13.60;99.90;;;;;;5058768;28;20435;-71
2023/05/13 00:55:53;;;;;;;17.35;15.95;;;13.60;99.90;;;;;;5065383;28;20901;-71
2023/05/13 00:58:20;;;;;;;17.80;16.33;;;13.60;99.90;;;;;;5058971;28;20412;-71
2023/05/13 01:01:11;;;;;;;16.47;15.17;;;13.60;99.90;;;;;;5049499;28;20452;-71
2023/05/13 01:03:47;;;;;;;17.25;15.95;;;13.50;99.90;;;;;;5059301;28;20411;-71
2023/05/13 01:06:18;;;;;;;17.05;15.70;;;13.50;99.90;;;;;;5062912;28;20447;-71
2023/05/13 01:08:58;;;;;;;17.20;15.70;;;13.40;99.90;;;;;;5061805;28;20949;-71
2023/05/13 01:11:28;;;;;;;17.58;16.17;;;13.30;99.90;;;;;;5050935;28;20452;-72
2023/05/13 01:14:02;;;;;;;17.25;15.95;;;13.20;99.90;;;;;;5064075;28;20464;-72
2023/05/13 01:16:35;;;;;;;17.02;15.73;;;13.20;99.90;;;;;;5060543;28;20886;-73
2023/05/13 01:19:11;;;;;;;18.17;16.77;;;13.10;99.90;;;;;;5053006;28;20425;-73
2023/05/13 01:21:39;;;;;;;17.02;15.73;;;13.10;99.90;;;;;;5057596;28;20809;-72
2023/05/13 01:24:06;;;;;;;16.70;15.20;;;13.10;99.90;;;;;;5058866;28;20511;-72
2023/05/13 01:26:33;;;;;;;16.90;15.50;;;13.00;99.90;;;;;;5061050;28;20880;-72
2023/05/13 01:29:00;;;;;;;18.00;16.70;;;12.90;99.90;;;;;;5052145;28;20425;-72
2023/05/13 01:31:27;;;;;;;17.65;16.30;;;12.90;99.90;;;;;;5056687;28;20530;-72
2023/05/13 01:33:54;;;;;;;16.98;15.63;;;12.90;99.90;;;;;;5053521;28;20448;-72
2023/05/13 01:36:21;;;;;;;16.20;14.80;;;12.90;99.90;;;;;;5061168;28;20442;-72
2023/05/13 01:38:50;;;;;;;17.13;15.80;;;12.80;99.90;;;;;;5068059;28;20419;-72
2023/05/13 01:41:16;;;;;;;15.80;14.60;;;12.80;99.90;;;;;;5060774;28;20426;-72
2023/05/13 01:43:43;;;;;;;17.58;16.17;;;12.80;99.90;;;;;;5061103;28;20922;-72
2023/05/13 01:46:13;;;;;;;17.67;16.20;;;12.80;99.90;;;;;;5056243;28;20439;-72
2023/05/13 01:48:40;;;;;;;17.40;16.00;;;12.80;99.90;;;;;;5055695;28;20512;-72
2023/05/13 01:51:07;;;;;;;16.90;15.60;;;12.80;99.90;;;;;;5062478;28;20416;-72
2023/05/13 01:53:33;;;;;;;16.48;15.20;;;12.90;99.90;;;;;;5064634;28;20442;-72
2023/05/13 01:56:01;;;;;;;16.50;15.20;;;12.80;99.90;;;;;;5059859;28;20735;-72
2023/05/13 01:58:28;;;;;;;16.13;14.93;;;12.80;99.90;;;;;;5057846;28;20439;-72
2023/05/13 02:00:55;;;;;;;17.35;15.95;;;12.70;99.90;;;;;;5058367;28;20423;-72
2023/05/13 02:03:22;;;;;;;18.00;16.63;;;12.60;99.90;;;;;;5064964;28;20439;-72
2023/05/13 02:05:48;;;;;;;18.90;17.40;;;12.60;99.90;;;;;;5058379;28;20440;-72
2023/05/13 02:08:15;;;;;;;18.23;16.88;;;12.60;99.90;;;;;;5064621;28;20439;-72
2023/05/13 02:10:42;;;;;;;17.70;16.10;;;12.50;99.90;;;;;;5063829;28;20758;-72
2023/05/13 02:13:10;;;;;;;17.85;16.50;;;12.50;99.90;;;;;;5060577;28;20442;-72
2023/05/13 02:15:37;;;;;;;18.55;17.05;;;12.50;99.90;;;;;;5062712;28;20654;-72
2023/05/13 02:18:04;;;;;;;18.95;17.52;;;12.50;99.90;;;;;;5055636;28;20957;-72
2023/05/13 02:20:31;;;;;;;18.67;17.17;;;12.40;99.90;;;;;;5061918;28;20945;-72
2023/05/13 02:22:57;;;;;;;19.33;17.75;;;12.40;99.90;;;;;;5065936;28;20430;-72
2023/05/13 02:25:24;;;;;;;18.20;16.88;;;12.30;99.90;;;;;;5069969;28;20420;-72
2023/05/13 02:27:51;;;;;;;21.10;19.40;;;12.30;99.90;;;;;;5060828;28;20461;-71
2023/05/13 02:30:20;;;;;;;21.13;19.50;;;12.40;99.90;;;;;;5059429;28;20488;-71
2023/05/13 02:32:47;;;;;;;20.83;19.23;;;12.40;99.90;;;;;;5052399;28;20436;-72
2023/05/13 02:35:14;;;;;;;19.48;17.88;;;12.50;99.90;;;;;;5060611;28;20526;-71
2023/05/13 02:37:40;;;;;;;20.35;18.55;;;12.60;99.90;;;;;;5064247;28;20504;-71
2023/05/13 02:40:08;;;;;;;21.50;19.70;;;12.50;99.90;;;;;;5064710;28;20480;-71
2023/05/13 02:42:35;;;;;;;20.70;18.90;;;12.50;99.90;;;;;;5053563;28;20487;-71
2023/05/13 02:45:01;;;;;;;19.85;18.25;;;12.60;99.90;;;;;;5059742;28;20510;-71
2023/05/13 02:47:30;;;;;;;22.23;20.42;;;12.60;99.90;;;;;;5055330;28;20428;-71
2023/05/13 02:49:57;;;;;;;20.60;19.00;;;12.60;99.90;;;;;;5061487;28;20546;-71
2023/05/13 02:52:23;;;;;;;20.63;19.02;;;12.60;99.90;;;;;;5061425;28;20782;-71
2023/05/13 02:54:50;;;;;;;18.75;17.35;;;12.60;99.90;;;;;;5060595;28;20432;-71
2023/05/13 02:57:17;;;;;;;19.85;18.15;;;12.60;99.90;;;;;;5056149;28;20549;-71
2023/05/13 02:59:44;;;;;;;18.83;17.30;;;12.50;99.90;;;;;;5061408;28;20911;-71
2023/05/13 03:02:11;;;;;;;20.07;18.57;;;12.40;99.90;;;;;;5054970;28;20459;-71
2023/05/13 03:04:40;;;;;;;19.92;18.42;;;12.40;99.90;;;;;;5067045;28;20431;-71
2023/05/13 03:07:07;;;;;;;20.80;19.20;;;12.30;99.90;;;;;;5060796;28;20459;-71
2023/05/13 03:09:33;;;;;;;20.42;18.63;;;12.40;99.90;;;;;;5059808;28;20732;-71
2023/05/13 03:12:00;;;;;;;19.60;18.00;;;12.40;99.90;;;;;;5056643;28;20429;-71
2023/05/13 03:14:27;;;;;;;20.25;18.65;;;12.40;99.90;;;;;;5063889;28;20426;-71
2023/05/13 03:16:54;;;;;;;20.92;19.33;;;12.40;99.90;;;;;;5047319;28;20429;-71
2023/05/13 03:19:21;;;;;;;20.30;18.70;;;12.40;99.90;;;;;;5054621;28;20446;-71
2023/05/13 03:21:49;;;;;;;19.00;17.40;;;12.40;99.90;;;;;;5053568;28;20425;-71
2023/05/13 03:24:16;;;;;;;20.65;19.05;;;12.40;99.90;;;;;;5063179;28;20424;-71
2023/05/13 03:26:43;;;;;;;21.33;19.48;;;12.30;99.90;;;;;;5059139;28;20431;-71
2023/05/13 03:29:09;;;;;;;21.50;19.63;;;12.30;99.90;;;;;;5062281;28;20518;-71
2023/05/13 03:31:37;;;;;;;21.55;19.83;;;12.30;99.90;;;;;;5058505;28;20424;-71
2023/05/13 03:34:03;;;;;;;20.80;19.20;;;12.20;99.90;;;;;;5057046;28;20416;-71
2023/05/13 03:36:31;;;;;;;20.88;19.17;;;12.20;99.90;;;;;;5052671;28;20429;-71
2023/05/13 03:38:59;;;;;;;19.25;17.75;;;12.20;99.90;;;;;;5060892;28;20504;-71
2023/05/13 03:41:27;;;;;;;22.08;20.20;;;12.10;99.90;;;;;;5055045;28;21055;-71
2023/05/13 03:43:53;;;;;;;22.52;20.83;;;12.00;99.90;;;;;;5058403;28;20464;-71
2023/05/13 03:46:22;;;;;;;22.42;20.63;;;12.00;99.90;;;;;;5065902;28;20864;-71
2023/05/13 03:48:49;;;;;;;23.43;21.53;;;12.10;99.90;;;;;;5060853;28;20472;-70
2023/05/13 03:51:15;;;;;;;21.88;20.10;;;12.10;99.90;;;;;;5064827;28;20524;-71
2023/05/13 03:53:42;;;;;;;17.90;16.30;;;12.10;99.90;;;;;;5058359;28;20435;-71
2023/05/13 03:56:10;;;;;;;16.10;14.63;;;12.20;99.90;;;;;;5056063;28;20494;-71
2023/05/13 03:58:37;;;;;;;15.80;14.50;;;12.20;99.90;;;;;;5058473;28;20535;-71
2023/05/13 04:01:05;;;;;;;13.88;12.77;;;12.20;99.90;;;;;;5057178;28;20505;-71
2023/05/13 04:03:31;;;;;;;14.25;13.05;;;12.20;99.90;;;;;;5063710;28;20414;-72
2023/05/13 04:05:58;;;;;;;13.93;12.83;;;12.10;99.90;;;;;;5063650;28;20654;-70
2023/05/13 04:08:25;;;;;;;15.40;14.23;;;12.10;99.90;;;;;;5056969;28;20439;-71
2023/05/13 04:10:52;;;;;;;15.50;14.10;;;12.00;99.90;;;;;;5055610;28;20433;-71
2023/05/13 04:13:20;;;;;;;15.50;14.30;;;12.00;99.90;;;;;;5055017;28;20432;-73
2023/05/13 04:15:46;;;;;;;16.30;14.95;;;11.90;99.90;;;;;;5060090;28;20911;-71
2023/05/13 04:18:13;;;;;;;15.50;14.20;;;11.90;99.90;;;;;;5055620;28;20524;-72
2023/05/13 04:20:40;;;;;;;16.88;15.55;;;11.90;99.90;;;;;;5063091;28;20431;-71
2023/05/13 04:23:07;;;;;;;16.30;14.90;;;11.80;99.90;;;;;;5054714;28;20436;-71
2023/05/13 04:25:35;;;;;;;16.58;15.18;;;11.80;99.90;;;;;;5065853;28;20935;-71
2023/05/13 04:28:02;;;;;;;16.88;15.48;;;11.80;99.90;;;;;;5057160;28;20428;-71
2023/05/13 04:30:30;;;;;;;16.50;15.30;;;11.80;99.90;;;;;;5055396;28;20440;-71
2023/05/13 04:32:57;;;;;;;17.40;16.10;;;11.90;99.90;;;;;;5058656;28;20468;-70
2023/05/13 04:35:24;;;;;;;17.10;15.60;;;11.90;99.90;;;;;;5056063;28;20467;-71
2023/05/13 04:37:51;;;;;;;17.70;16.10;;;11.90;99.90;;;;;;5056981;28;20438;-72
2023/05/13 04:40:17;;;;;;;20.85;19.25;;;11.90;99.90;;;;;;5051713;28;20435;-70
2023/05/13 04:42:44;;;;;;;25.30;23.20;;;11.90;99.90;;;;;;5061896;28;20428;-71
2023/05/13 04:45:11;;;;;;;26.83;24.73;;;11.90;99.90;;;;;;5060668;28;20416;-71
2023/05/13 04:47:39;;;;;;;25.80;23.70;;;11.90;99.90;;;;;;5063101;28;20511;-72
2023/05/13 04:50:07;;;;;;;25.05;23.10;;;12.00;99.90;;;;;;5066729;28;20431;-72
2023/05/13 04:52:33;;;;;;;25.70;23.67;;;12.00;99.90;;;;;;5063696;28;20419;-71
2023/05/13 04:55:00;;;;;;;25.60;23.60;;;12.10;99.90;;;;;;5062033;28;20969;-72
2023/05/13 04:57:27;;;;;;;26.00;23.90;;;12.10;99.90;;;;;;5061201;28;20440;-72
2023/05/13 04:59:54;;;;;;;25.13;23.13;;;12.10;99.90;;;;;;5062633;28;20454;-72
2023/05/13 05:02:20;;;;;;;26.20;24.10;;;12.10;99.90;;;;;;5060455;28;20520;-72
2023/05/13 05:04:49;;;;;;;26.20;24.02;;;12.20;99.90;;;;;;5067023;28;20419;-72
2023/05/13 05:07:15;;;;;;;25.17;23.08;;;12.30;99.90;;;;;;5057822;28;20487;-71
2023/05/13 05:09:42;;;;;;;24.98;22.92;;;12.20;99.90;;;;;;5058485;28;20431;-71
2023/05/13 05:12:09;;;;;;;23.90;22.00;;;12.30;99.90;;;;;;5062377;28;20420;-71
2023/05/13 05:14:37;;;;;;;23.67;21.77;;;12.30;99.90;;;;;;5056389;28;20425;-71
2023/05/13 05:17:04;;;;;;;24.48;22.30;;;12.30;99.90;;;;;;5063652;28;20609;-71
2023/05/13 05:19:30;;;;;;;23.40;21.50;;;12.30;99.90;;;;;;5057169;28;20752;-72
2023/05/13 05:21:58;;;;;;;24.45;22.35;;;12.40;99.90;;;;;;5058884;28;20896;-72
2023/05/13 05:24:25;;;;;;;24.02;22.02;;;12.40;99.90;;;;;;5057456;28;20450;-72
2023/05/13 05:26:52;;;;;;;25.45;23.45;;;12.40;99.90;;;;;;5060067;28;20823;-72
2023/05/13 05:29:19;;;;;;;26.65;24.45;;;12.40;99.90;;;;;;5053690;28;20962;-72
2023/05/13 05:31:46;;;;;;;25.13;23.23;;;12.50;99.90;;;;;;5056890;28;20766;-71
2023/05/13 05:34:13;;;;;;;23.27;21.48;;;12.50;99.90;;;;;;5061947;28;20989;-71
2023/05/13 05:36:40;;;;;;;21.63;19.92;;;12.60;99.90;;;;;;5062286;28;20739;-71
2023/05/13 05:39:08;;;;;;;20.00;18.40;;;12.60;99.90;;;;;;5057999;28;20434;-73
2023/05/13 05:41:35;;;;;;;19.30;17.83;;;12.70;99.90;;;;;;5052856;28;20458;-72
2023/05/13 05:44:01;;;;;;;20.10;18.40;;;12.70;99.90;;;;;;5067652;28;20415;-73
2023/05/13 05:46:28;;;;;;;19.38;17.77;;;12.80;99.90;;;;;;5047869;28;20458;-73
2023/05/13 05:48:55;;;;;;;19.17;17.67;;;12.80;99.90;;;;;;5061148;28;20443;-73
2023/05/13 05:51:22;;;;;;;19.42;17.83;;;12.80;99.90;;;;;;5063832;28;20427;-73
2023/05/13 05:53:48;;;;;;;20.00;18.40;;;12.90;99.90;;;;;;5058032;28;20978;-73
2023/05/13 05:56:16;;;;;;;18.23;16.83;;;12.90;99.90;;;;;;5054390;28;20434;-73
2023/05/13 05:58:43;;;;;;;16.70;15.40;;;12.90;99.90;;;;;;5064734;28;20414;-73
2023/05/13 06:01:10;;;;;;;17.00;15.70;;;13.00;99.90;;;;;;5058077;28;20484;-73
2023/05/13 06:03:37;;;;;;;17.45;15.95;;;13.00;99.90;;;;;;5067626;28;20655;-73
2023/05/13 06:06:04;;;;;;;15.98;14.88;;;13.00;99.90;;;;;;5060107;28;20447;-72
2023/05/13 06:08:31;;;;;;;15.40;14.30;;;13.10;99.90;;;;;;5057439;28;20907;-71
2023/05/13 06:10:58;;;;;;;15.40;14.20;;;13.10;99.90;;;;;;5060940;28;20431;-71
2023/05/13 06:13:26;;;;;;;15.00;13.90;;;13.20;99.90;;;;;;5065199;28;20433;-72
2023/05/13 06:15:52;;;;;;;15.70;14.30;;;13.20;99.90;;;;;;5053182;28;20429;-72
2023/05/13 06:18:21;;;;;;;14.82;13.82;;;13.30;99.90;;;;;;5058374;28;20440;-72
2023/05/13 06:20:48;;;;;;;14.48;13.48;;;13.30;99.90;;;;;;5063307;28;20472;-70
2023/05/13 06:23:15;;;;;;;15.00;13.80;;;13.40;99.90;;;;;;5062771;28;20419;-72
2023/05/13 06:25:42;;;;;;;13.57;12.57;;;13.40;99.90;;;;;;5054181;28;20938;-72
2023/05/13 06:28:11;;;;;;;13.50;12.50;;;13.50;99.90;;;;;;5057717;28;20946;-71
2023/05/13 06:30:39;;;;;;;14.00;12.90;;;13.60;99.90;;;;;;5060060;28;20429;-72
2023/05/13 06:33:07;;;;;;;13.30;12.40;;;13.60;99.90;;;;;;5059393;28;20420;-73
2023/05/13 06:35:33;;;;;;;13.40;12.20;;;13.70;99.90;;;;;;5064065;28;20431;-72
2023/05/13 06:38:00;;;;;;;11.80;11.00;;;13.80;99.90;;;;;;5042170;28;20453;-72
2023/05/13 06:40:27;;;;;;;11.00;10.10;;;13.90;99.90;;;;;;5052299;28;20423;-72
2023/05/13 06:42:53;;;;;;;10.18;9.27;;;14.00;99.90;;;;;;5071391;28;20429;-72
2023/05/13 06:45:22;;;;;;;10.80;9.90;;;14.10;99.90;;;;;;5080140;28;20418;-72
2023/05/13 06:47:50;;;;;;;12.05;11.07;;;14.20;99.90;;;;;;5059427;28;20469;-72
2023/05/13 06:50:17;;;;;;;11.60;10.70;;;14.30;99.90;;;;;;5062455;28;20539;-72
2023/05/13 06:52:44;;;;;;;11.93;10.93;;;14.50;99.90;;;;;;5043986;28;20833;-72
2023/05/13 06:55:11;;;;;;;11.90;11.10;;;14.50;99.90;;;;;;5064996;28;20451;-72
2023/05/13 06:57:38;;;;;;;11.25;10.38;;;14.60;99.50;;;;;;5056136;28;20565;-72
2023/05/13 07:00:06;;;;;;;11.65;10.75;;;14.70;99.30;;;;;;5059581;28;20455;-72
2023/05/13 07:02:33;;;;;;;10.60;9.80;;;14.70;99.00;;;;;;5058295;28;20426;-74
2023/05/13 07:05:01;;;;;;;10.77;9.88;;;14.90;98.90;;;;;;5058714;28;20424;-73
2023/05/13 07:07:27;;;;;;;10.30;9.60;;;15.00;97.70;;;;;;5053878;28;20534;-73
2023/05/13 07:09:54;;;;;;;10.40;9.60;;;15.20;97.20;;;;;;5052165;28;20437;-74
2023/05/13 07:12:21;;;;;;;10.50;9.80;;;15.30;96.60;;;;;;5047411;28;20437;-78
2023/05/13 07:14:48;;;;;;;10.60;9.80;;;15.30;96.00;;;;;;5052480;28;20437;-76
2023/05/13 07:17:15;;;;;;;10.82;9.98;;;15.50;95.90;;;;;;5058110;28;20426;-75
2023/05/13 07:19:41;;;;;;;10.80;10.00;;;15.60;95.60;;;;;;5057571;28;20434;-74
2023/05/13 07:22:10;;;;;;;10.20;9.40;;;15.60;95.90;;;;;;5063659;28;20451;-74
2023/05/13 07:24:37;;;;;;;10.95;10.15;;;15.80;96.00;;;;;;5057207;28;20843;-73
2023/05/13 07:27:04;;;;;;;10.05;9.35;;;15.90;95.20;;;;;;5055785;28;20795;-73
2023/05/13 07:29:31;;;;;;;9.90;9.10;;;16.00;95.10;;;;;;5054283;28;20435;-73
2023/05/13 07:31:58;;;;;;;9.63;8.82;;;16.20;95.00;;;;;;5059400;28;20885;-76
2023/05/13 07:34:24;;;;;;;9.00;8.30;;;16.40;94.00;;;;;;5057654;28;20854;-76
2023/05/13 07:36:51;;;;;;;9.55;8.85;;;16.60;93.10;;;;;;5057389;28;20532;-75
2023/05/13 07:39:19;;;;;;;9.02;8.43;;;16.80;91.70;;;;;;5052620;28;20431;-75
2023/05/13 07:41:46;;;;;;;8.52;7.93;;;16.80;91.00;;;;;;5047552;28;20516;-75
2023/05/13 07:44:14;;;;;;;8.82;7.97;;;16.80;90.30;;;;;;5058383;28;20858;-74
2023/05/13 07:46:40;;;;;;;8.70;7.88;;;16.70;88.30;;;;;;5055894;28;20764;-74
2023/05/13 07:49:07;;;;;;;8.57;7.87;;;16.70;89.10;;;;;;5054566;28;20537;-74
2023/05/13 07:51:35;;;;;;;8.50;7.80;;;16.70;89.80;;;;;;5056317;28;20979;-73
2023/05/13 07:54:01;;;;;;;8.27;7.68;;;16.70;88.90;;;;;;5050954;28;20544;-73
2023/05/13 07:56:30;;;;;;;8.50;7.90;;;16.70;89.10;;;;;;5054869;28;20450;-73
2023/05/13 07:58:58;;;;;;;8.30;7.60;;;16.70;86.30;;;;;;5051176;28;20425;-72
2023/05/13 08:01:24;;;;;;;8.23;7.50;;;16.70;86.60;;;;;;5064182;28;20908;-72
2023/05/13 08:03:51;;;;;;;8.50;7.80;;;16.60;85.90;;;;;;5050418;28;20851;-72
2023/05/13 08:06:18;;;;;;;8.73;7.90;;;16.70;86.40;;;;;;5063446;28;20460;-70
2023/05/13 08:08:45;;;;;;;8.00;7.30;;;16.80;86.80;;;;;;5059793;28;20845;-73
2023/05/13 08:11:12;;;;;;;8.50;7.70;;;16.90;86.70;;;;;;5059492;28;20433;-73
2023/05/13 08:13:40;;;;;;;8.15;7.35;;;17.10;84.70;;;;;;5058813;28;20899;-71
2023/05/13 08:16:07;;;;;;;7.90;7.30;;;17.20;84.50;;;;;;5056474;28;20579;-70
2023/05/13 08:18:34;;;;;;;7.63;7.00;;;17.50;83.50;;;;;;5060095;28;20443;-71
2023/05/13 08:21:00;;;;;;;6.95;6.35;;;17.90;83.40;;;;;;5058681;28;20447;-71
2023/05/13 08:23:27;;;;;;;7.10;6.50;;;18.40;81.00;;;;;;5058769;28;20431;-71
2023/05/13 08:25:54;;;;;;;7.40;6.70;;;18.80;77.60;;;;;;5055932;28;20442;-71
2023/05/13 08:28:20;;;;;;;7.15;6.55;;;19.10;76.00;;;;;;5057138;28;20437;-70
2023/05/13 08:30:49;;;;;;;6.93;6.23;;;19.40;74.40;;;;;;5061586;28;20428;-72
2023/05/13 08:33:15;;;;;;;6.97;6.37;;;19.70;73.70;;;;;;5068393;28;20420;-73
2023/05/13 08:35:42;;;;;;;6.90;6.30;;;20.10;70.50;;;;;;5073967;28;20422;-71
2023/05/13 08:38:09;;;;;;;7.85;7.00;;;20.20;63.60;;;;;;5062792;28;20419;-71
2023/05/13 08:40:36;;;;;;;8.30;7.43;;;20.00;63.90;;;;;;5058623;28;20899;-71
2023/05/13 08:43:05;;;;;;;7.30;6.60;;;20.00;65.00;;;;;;5062169;28;20477;-71
2023/05/13 08:45:34;;;;;;;7.20;6.70;;;20.00;65.80;;;;;;5063425;28;20435;-71
2023/05/13 08:48:03;;;;;;;7.70;7.00;;;20.00;63.00;;;;;;5065877;28;20419;-71
2023/05/13 08:50:31;;;;;;;6.00;5.50;;;20.20;64.80;;;;;;5064533;28;20592;-71
2023/05/13 08:52:59;;;;;;;6.40;5.80;;;20.40;63.50;;;;;;5065801;28;20427;-71
2023/05/13 08:55:27;;;;;;;7.10;6.40;;;20.60;63.10;;;;;;5063722;28;20469;-71
2023/05/13 08:57:53;;;;;;;6.82;6.32;;;20.80;61.70;;;;;;5060948;28;20497;-71
2023/05/13 09:00:20;;;;;;;7.10;6.40;;;20.90;60.30;;;;;;5064187;28;20423;-71
2023/05/13 09:02:48;;;;;;;5.85;5.38;;;21.10;59.60;;;;;;5065142;28;20538;-71
2023/05/13 09:05:17;;;;;;;6.57;5.87;;;21.20;59.80;;;;;;5055123;28;20519;-72
2023/05/13 09:07:44;;;;;;;7.50;5.10;;;21.40;57.30;;;;;;5060029;28;20447;-71
2023/05/13 09:10:11;;;;;;;6.00;5.32;;;21.60;58.50;;;;;;5060703;28;20528;-74
2023/05/13 09:12:46;;;;;;;5.68;5.28;;;21.80;56.60;;;;;;5074471;28;20834;-72
2023/05/13 09:15:14;;;;;;;5.57;5.10;;;22.00;55.60;;;;;;5065165;28;20429;-73
2023/05/13 09:17:42;;;;;;;6.30;5.30;;;22.20;53.40;;;;;;5069553;28;20415;-73
2023/05/13 09:20:11;;;;;;;5.40;4.90;;;22.40;52.20;;;;;;5061472;28;20524;-74
2023/05/13 09:22:45;;;;;;;5.37;4.87;;;22.60;53.60;;;;;;5062952;28;20502;-74
2023/05/13 09:25:13;;;;;;;5.47;4.90;;;22.80;51.50;;;;;;5059034;28;20514;-74
2023/05/13 09:27:41;;;;;;;5.32;4.82;;;23.10;51.10;;;;;;5055127;28;20427;-75
2023/05/13 09:30:09;;;;;;;5.43;4.93;;;23.30;50.70;;;;;;5059787;28;20611;-73
2023/05/13 09:32:36;;;;;;;5.15;4.65;;;23.50;45.50;;;;;;5069496;28;20431;-74
2023/05/13 09:35:12;;;;;;;5.68;5.28;;;23.50;47.60;;;;;;5070005;28;20468;-74
2023/05/13 09:37:39;;;;;;;5.93;5.43;;;23.60;46.10;;;;;;5069810;28;20493;-75
2023/05/13 09:40:12;;;;;;;5.77;5.30;;;23.60;44.80;;;;;;5067311;28;20495;-75
2023/05/13 09:42:41;;;;;;;5.53;5.03;;;23.70;44.00;;;;;;5068989;28;20860;-74
2023/05/13 09:45:09;;;;;;;5.30;4.80;;;23.60;44.80;;;;;;5070038;28;20427;-74
2023/05/13 09:47:36;;;;;;;4.93;4.53;;;23.60;44.70;;;;;;5070047;28;20868;-73
2023/05/13 09:50:04;;;;;;;4.90;4.50;;;23.60;45.70;;;;;;5074503;28;20775;-73
2023/05/13 09:52:32;;;;;;;5.23;4.83;;;23.70;45.20;;;;;;5077684;28;20439;-74
2023/05/13 09:54:58;;;;;;;4.85;4.47;;;23.80;45.00;;;;;;5068488;28;20431;-73
2023/05/13 09:57:28;;;;;;;4.65;4.03;;;24.10;44.60;;;;;;5068369;28;20420;-74
2023/05/13 09:59:59;;;;;;;5.22;4.32;;;24.10;44.00;;;;;;5074358;28;20441;-75
2023/05/13 10:02:26;;;;;;;4.20;3.90;;;24.30;45.20;;;;;;5074935;28;20484;-75
2023/05/13 10:04:54;;;;;;;4.63;4.22;;;24.30;45.40;;;;;;5076689;28;20753;-74
2023/05/13 10:07:23;;;;;;;5.10;4.70;;;24.40;45.80;;;;;;5078722;28;20448;-74
2023/05/13 10:09:53;;;;;;;4.35;3.95;;;24.40;45.00;;;;;;5057183;28;20485;-75
2023/05/13 10:12:21;;;;;;;4.13;3.83;;;24.60;45.20;;;;;;5063821;28;20500;-73
2023/05/13 10:14:51;;;;;;;4.30;3.90;;;24.60;44.20;;;;;;5063315;28;20441;-73
2023/05/13 10:17:20;;;;;;;5.18;4.78;;;24.50;44.60;;;;;;5054449;28;20624;-73
2023/05/13 10:19:50;;;;;;;5.38;4.80;;;24.30;43.80;;;;;;5055764;28;20482;-69
2023/05/13 10:22:20;;;;;;;6.28;5.78;;;23.80;45.80;;;;;;5055193;28;20475;-68
2023/05/13 10:24:48;;;;;;;5.70;5.10;;;23.60;45.80;;;;;;5052770;28;20944;-72
2023/05/13 10:27:15;;;;;;;5.40;5.00;;;23.50;48.00;;;;;;5061032;28;20447;-72
2023/05/13 10:29:43;;;;;;;5.05;4.60;;;23.60;48.10;;;;;;5058071;28;20416;-72
2023/05/13 10:32:12;;;;;;;6.05;5.13;;;23.90;49.00;;;;;;5059542;28;20458;-71
2023/05/13 10:34:41;;;;;;;6.72;6.00;;;24.10;46.90;;;;;;5056178;28;20437;-71
2023/05/13 10:37:23;;;;;;;6.47;5.97;;;24.00;47.40;;;;;;5056012;28;20458;-71
2023/05/13 10:40:10;;;;;;;6.20;5.60;;;23.80;47.50;;;;;;5052759;28;20441;-72
2023/05/13 10:42:41;;;;;;;5.15;4.75;;;23.50;45.90;;;;;;5059935;28;20422;-71
2023/05/13 10:45:09;;;;;;;5.75;5.25;;;23.30;49.10;;;;;;5074022;28;20485;-71
2023/05/13 10:47:37;;;;;;;5.38;4.88;;;23.10;48.30;;;;;;5065579;28;20428;-72
2023/05/13 10:50:23;;;;;;;5.30;4.90;;;23.10;48.90;;;;;;5059375;28;20434;-70
2023/05/13 10:52:50;;;;;;;6.18;4.90;;;23.00;48.90;;;;;;5057331;28;20424;-71
2023/05/13 10:55:19;;;;;;;12.50;11.50;;;23.10;49.80;;;;;;5064197;28;20479;-72
2023/05/13 10:58:07;;;;;;;6.90;6.40;;;23.10;49.90;;;;;;5061633;28;20513;-72
2023/05/13 11:00:36;;;;;;;6.38;5.80;;;23.00;49.30;;;;;;5062583;28;20430;-73
2023/05/13 11:03:12;;;;;;;6.50;5.90;;;22.90;48.90;;;;;;5053171;28;20722;-71
2023/05/13 11:05:41;;;;;;;6.70;6.20;;;22.70;49.10;;;;;;5063084;28;20507;-72
2023/05/13 11:08:08;;;;;;;7.57;6.88;;;22.50;48.00;;;;;;5062463;28;20566;-71
2023/05/13 11:10:35;;;;;;;7.30;6.80;;;22.30;49.60;;;;;;5056466;28;20476;-71
2023/05/13 11:13:23;;;;;;;7.10;6.50;;;22.20;49.90;;;;;;5061203;28;20427;-72
2023/05/13 11:15:51;;;;;;;8.25;7.10;;;22.20;51.00;;;;;;5059741;28;20665;-72
2023/05/13 11:18:20;;;;;;;7.38;6.75;;;22.10;51.30;;;;;;5078315;28;20577;-71
2023/05/13 11:20:53;;;;;;;6.78;6.07;;;22.10;51.30;;;;;;5052554;28;20939;-71
2023/05/13 11:23:21;;;;;;;5.32;4.88;;;22.00;51.50;;;;;;5063332;28;20463;-72
2023/05/13 11:26:12;;;;;;;5.35;4.40;;;21.80;47.00;;;;;;5055650;28;20451;-73
2023/05/13 11:29:00;;;;;;;4.97;3.90;;;21.60;47.10;;;;;;5056684;28;20411;-73
2023/05/13 11:31:28;;;;;;;3.78;3.40;;;21.10;46.80;;;;;;5061629;28;20569;-73
2023/05/13 11:34:09;;;;;;;3.20;2.90;;;20.50;47.60;;;;;;5065124;28;20419;-73
2023/05/13 11:36:36;;;;;;;3.53;3.20;;;19.90;51.30;;;;;;5049993;28;20433;-73
2023/05/13 11:39:09;;;;;;;3.50;3.20;;;19.30;61.90;;;;;;5056005;28;20443;-74
2023/05/13 11:41:37;;;;;;;4.80;3.60;;;18.60;66.10;;;;;;5054816;28;20580;-74
2023/05/13 11:44:05;;;;;;;4.07;3.22;;;18.00;63.70;;;;;;5055612;28;20415;-72
2023/05/13 11:46:32;;;;;;;3.85;3.00;;;17.40;69.70;;;;;;5056408;28;20435;-73
2023/05/13 11:48:59;;;;;;;3.60;3.30;;;16.90;69.50;;;;;;5054875;28;20501;-72
2023/05/13 11:51:27;;;;;;;3.38;3.13;;;16.50;76.70;;;;;;5054604;28;20720;-74
2023/05/13 11:54:00;;;;;;;4.22;3.20;;;16.30;81.20;;;;;;5060486;28;20555;-73
2023/05/13 11:56:28;;;;;;;4.60;3.20;;;16.20;82.50;;;;;;5063150;28;20435;-74
2023/05/13 11:58:54;;;;;;;4.97;3.40;;;16.10;85.30;;;;;;5057033;28;20530;-74
2023/05/13 12:01:21;;;;;;;5.85;4.25;;;16.10;85.90;;;;;;5061314;28;20436;-74
2023/05/13 12:03:48;;;;;;;4.38;3.97;;;16.20;86.50;;;;;;5066566;28;20790;-74
2023/05/13 12:06:15;;;;;;;5.07;3.53;;;16.20;83.90;;;;;;5069639;28;20906;-74
2023/05/13 12:08:46;;;;;;;3.90;3.60;;;16.30;82.10;;;;;;5073149;28;20477;-74
2023/05/13 12:11:13;;;;;;;4.00;3.60;;;16.30;85.60;;;;;;5065203;28;20430;-75
2023/05/13 12:13:41;;;;;;;3.85;3.50;;;16.40;82.30;;;;;;5057010;28;20556;-75
2023/05/13 12:16:09;;;;;;;4.20;3.50;;;16.50;81.00;;;;;;5059635;28;20444;-75
2023/05/13 12:18:37;;;;;;;3.60;3.30;;;16.60;81.10;;;;;;5067230;28;20432;-75
2023/05/13 12:21:16;;;;;;;4.28;3.50;;;16.60;73.00;;;;;;5062508;28;20421;-74
2023/05/13 12:23:42;;;;;;;4.38;3.70;;;16.80;70.10;;;;;;5060464;28;20506;-73
2023/05/13 12:26:10;;;;;;;3.47;3.17;;;17.00;74.00;;;;;;5060642;28;20780;-74
2023/05/13 12:28:37;;;;;;;3.53;3.22;;;17.20;73.60;;;;;;5061975;28;20436;-74
2023/05/13 12:31:05;;;;;;;4.00;3.70;;;17.40;69.00;;;;;;5056624;28;20433;-72
2023/05/13 12:33:33;;;;;;;3.60;3.30;;;17.50;73.10;;;;;;5067523;28;20523;-74
2023/05/13 12:36:16;;;;;;;4.10;3.37;;;17.60;65.10;;;;;;5052296;28;20448;-74
2023/05/13 12:38:57;;;;;;;3.67;3.38;;;17.90;63.20;;;;;;5061191;28;20442;-75
2023/05/13 12:41:27;;;;;;;4.07;3.17;;;17.90;66.20;;;;;;5059752;28;20427;-74